createdAt,value
2018-09-19T00:01:22.116Z,14.32
2018-09-19T00:03:05.601Z,14.28
2018-09-19T00:04:44.297Z,14.24
2018-09-19T00:06:20.904Z,14.22
2018-09-19T00:07:58.735Z,14.17
2018-09-19T00:09:34.860Z,14.18
2018-09-19T00:11:10.536Z,14.12
2018-09-19T00:12:50.779Z,14.17
2018-09-19T00:14:27.170Z,14.23
2018-09-19T00:16:02.290Z,14.15
2018-09-19T00:18:46.739Z,14.12
2018-09-19T00:20:23.611Z,14.16
2018-09-19T00:22:02.692Z,14.08
2018-09-19T00:23:39.385Z,14.16
2018-09-19T00:25:16.427Z,14.15
2018-09-19T00:26:51.849Z,14.15
2018-09-19T00:28:27.839Z,14.09
2018-09-19T00:30:07.093Z,14.05
2018-09-19T00:31:46.037Z,13.98
2018-09-19T00:33:23.093Z,14.02
2018-09-19T00:35:00.128Z,14.06
2018-09-19T00:36:35.183Z,14.03
2018-09-19T00:38:13.522Z,14.05
2018-09-19T00:39:49.341Z,14.10
2018-09-19T00:41:26.253Z,14.14
2018-09-19T00:43:02.154Z,14.15
2018-09-19T00:44:37.663Z,14.19
2018-09-19T00:46:12.990Z,14.17
2018-09-19T00:47:50.130Z,14.20
2018-09-19T00:49:31.621Z,14.17
2018-09-19T00:51:08.102Z,14.18
2018-09-19T00:52:49.649Z,14.17
2018-09-19T00:54:26.303Z,14.18
2018-09-19T00:56:03.037Z,14.21
2018-09-19T00:57:38.186Z,14.28
2018-09-19T00:59:14.214Z,14.23
2018-09-19T01:00:49.490Z,14.22
2018-09-19T01:02:25.160Z,14.24
2018-09-19T01:04:03.326Z,14.28
2018-09-19T01:05:38.213Z,14.24
2018-09-19T01:07:14.779Z,14.25
2018-09-19T01:08:52.523Z,14.24
2018-09-19T01:10:30.121Z,14.27
2018-09-19T01:12:07.883Z,14.36
2018-09-19T01:13:44.410Z,14.35
2018-09-19T01:15:20.068Z,14.36
2018-09-19T01:16:56.099Z,14.37
2018-09-19T01:18:32.569Z,14.32
2018-09-19T01:21:23.755Z,14.34
2018-09-19T01:22:59.807Z,14.32
2018-09-19T01:24:37.509Z,14.28
2018-09-19T01:26:20.761Z,14.21
2018-09-19T01:27:56.146Z,14.16
2018-09-19T01:29:32.687Z,14.10
2018-09-19T01:31:08.229Z,14.07
2018-09-19T01:32:43.649Z,13.99
2018-09-19T01:34:21.883Z,13.98
2018-09-19T01:35:56.804Z,13.96
2018-09-19T01:37:32.089Z,13.90
2018-09-19T01:39:08.895Z,13.86
2018-09-19T01:40:44.356Z,13.82
2018-09-19T01:42:20.812Z,13.74
2018-09-19T01:43:56.452Z,13.69
2018-09-19T01:45:31.648Z,13.66
2018-09-19T01:47:07.478Z,13.69
2018-09-19T01:48:42.532Z,13.66
2018-09-19T01:50:19.411Z,13.55
2018-09-19T01:51:54.876Z,13.56
2018-09-19T01:53:30.279Z,13.54
2018-09-19T01:55:05.352Z,13.48
2018-09-19T01:56:40.885Z,13.46
2018-09-19T01:58:17.632Z,13.49
2018-09-19T01:59:54.315Z,13.46
2018-09-19T02:01:29.311Z,13.44
2018-09-19T02:03:05.747Z,13.40
2018-09-19T02:04:40.812Z,13.36
2018-09-19T02:06:16.997Z,13.32
2018-09-19T02:07:52.272Z,13.34
2018-09-19T02:09:27.444Z,13.36
2018-09-19T02:11:03.412Z,13.32
2018-09-19T02:12:38.551Z,13.27
2018-09-19T02:14:14.599Z,13.22
2018-09-19T02:15:49.689Z,13.16
2018-09-19T02:17:24.732Z,13.16
2018-09-19T02:19:01.268Z,13.12
2018-09-19T02:20:36.424Z,13.06
2018-09-19T02:22:11.792Z,12.99
2018-09-19T02:23:47.827Z,12.95
2018-09-19T02:25:22.643Z,13.00
2018-09-19T02:26:58.041Z,12.95
2018-09-19T02:28:33.467Z,13.01
2018-09-19T02:30:08.772Z,12.97
2018-09-19T02:31:44.839Z,12.90
2018-09-19T02:33:20.121Z,12.89
2018-09-19T02:34:55.456Z,12.86
2018-09-19T02:36:31.261Z,12.87
2018-09-19T02:38:06.251Z,12.84
2018-09-19T02:39:41.280Z,12.79
2018-09-19T02:41:16.541Z,12.73
2018-09-19T02:42:51.536Z,12.70
2018-09-19T02:44:27.110Z,12.69
2018-09-19T02:46:02.073Z,12.73
2018-09-19T02:47:37.453Z,12.72
2018-09-19T02:49:13.050Z,12.75
2018-09-19T02:50:48.053Z,12.71
2018-09-19T02:52:23.581Z,12.66
2018-09-19T02:53:58.732Z,12.63
2018-09-19T02:55:36.054Z,12.60
2018-09-19T02:57:12.241Z,12.53
2018-09-19T02:58:47.160Z,12.45
2018-09-19T03:00:22.051Z,12.51
2018-09-19T03:01:59.092Z,12.59
2018-09-19T03:03:35.945Z,12.56
2018-09-19T03:05:11.715Z,12.55
2018-09-19T03:06:47.686Z,12.51
2018-09-19T03:08:23.336Z,12.55
2018-09-19T03:09:58.646Z,12.44
2018-09-19T03:11:33.560Z,12.52
2018-09-19T03:13:09.100Z,12.60
2018-09-19T03:14:44.683Z,12.56
2018-09-19T03:16:20.190Z,12.55
2018-09-19T03:17:55.765Z,12.52
2018-09-19T03:19:31.387Z,12.47
2018-09-19T03:21:07.367Z,12.42
2018-09-19T03:22:42.693Z,12.43
2018-09-19T03:24:17.785Z,12.52
2018-09-19T03:25:52.679Z,12.51
2018-09-19T03:27:28.059Z,12.47
2018-09-19T03:29:03.691Z,12.45
2018-09-19T03:30:40.078Z,12.39
2018-09-19T03:32:15.017Z,12.32
2018-09-19T03:33:50.155Z,12.34
2018-09-19T03:35:26.366Z,12.38
2018-09-19T03:37:01.797Z,12.38
2018-09-19T03:38:37.460Z,12.39
2018-09-19T03:40:12.767Z,12.35
2018-09-19T03:41:48.104Z,12.27
2018-09-19T03:43:23.390Z,12.27
2018-09-19T03:44:59.972Z,12.31
2018-09-19T03:46:36.189Z,12.32
2018-09-19T03:48:11.295Z,12.25
2018-09-19T03:49:46.378Z,12.21
2018-09-19T03:51:22.324Z,12.24
2018-09-19T03:52:59.152Z,12.20
2018-09-19T03:54:34.205Z,12.19
2018-09-19T03:56:09.155Z,12.23
2018-09-19T03:57:44.524Z,12.15
2018-09-19T03:59:19.443Z,12.09
2018-09-19T04:00:55.267Z,12.05
2018-09-19T04:02:31.648Z,12.15
2018-09-19T04:04:06.719Z,12.21
2018-09-19T04:05:48.730Z,12.19
2018-09-19T04:07:32.554Z,12.25
2018-09-19T04:09:18.340Z,12.28
2018-09-19T04:10:53.572Z,12.25
2018-09-19T04:12:28.668Z,12.21
2018-09-19T04:14:03.666Z,12.25
2018-09-19T04:15:39.149Z,12.27
2018-09-19T04:17:13.967Z,12.30
2018-09-19T04:18:48.832Z,12.34
2018-09-19T04:20:23.689Z,12.30
2018-09-19T04:21:59.331Z,12.24
2018-09-19T04:23:34.788Z,12.18
2018-09-19T04:25:09.635Z,12.25
2018-09-19T04:26:44.494Z,12.21
2018-09-19T04:28:19.506Z,12.20
2018-09-19T04:29:54.374Z,12.16
2018-09-19T04:31:29.787Z,12.16
2018-09-19T04:33:09.753Z,12.18
2018-09-19T04:34:45.744Z,12.16
2018-09-19T04:36:50.564Z,12.16
2018-09-19T04:38:25.397Z,12.15
2018-09-19T04:40:00.720Z,12.12
2018-09-19T04:41:37.745Z,12.12
2018-09-19T04:43:12.772Z,12.10
2018-09-19T04:44:48.778Z,12.09
2018-09-19T04:46:24.129Z,12.12
2018-09-19T04:48:00.015Z,12.09
2018-09-19T04:49:35.557Z,12.08
2018-09-19T04:51:12.408Z,12.09
2018-09-19T04:52:47.302Z,12.08
2018-09-19T04:54:23.054Z,12.09
2018-09-19T04:55:59.156Z,12.12
2018-09-19T04:57:36.376Z,12.14
2018-09-19T04:59:14.113Z,12.19
2018-09-19T05:00:54.083Z,12.18
2018-09-19T05:02:29.682Z,12.17
2018-09-19T05:04:08.192Z,12.17
2018-09-19T05:05:44.018Z,12.15
2018-09-19T05:07:24.101Z,12.12
2018-09-19T05:08:59.202Z,12.09
2018-09-19T05:10:34.537Z,12.14
2018-09-19T05:12:09.693Z,12.10
2018-09-19T05:13:47.435Z,12.10
2018-09-19T05:15:23.273Z,12.10
2018-09-19T05:17:00.868Z,12.09
2018-09-19T05:18:36.280Z,12.06
2018-09-19T05:20:11.747Z,12.11
2018-09-19T05:21:46.708Z,12.19
2018-09-19T05:23:25.330Z,12.24
2018-09-19T05:25:03.759Z,12.25
2018-09-19T05:26:38.977Z,12.34
2018-09-19T05:28:14.169Z,12.32
2018-09-19T05:29:49.231Z,12.38
2018-09-19T05:31:24.761Z,12.44
2018-09-19T05:32:59.776Z,12.49
2018-09-19T05:34:34.889Z,12.52
2018-09-19T05:36:10.189Z,12.54
2018-09-19T05:37:47.303Z,12.59
2018-09-19T05:39:22.504Z,12.64
2018-09-19T05:40:59.375Z,12.66
2018-09-19T05:42:34.755Z,12.68
2018-09-19T05:44:10.091Z,12.71
2018-09-19T05:45:47.212Z,12.79
2018-09-19T05:47:24.553Z,12.83
2018-09-19T05:48:59.555Z,12.91
2018-09-19T05:50:41.907Z,12.91
2018-09-19T05:52:19.199Z,13.02
2018-09-19T05:53:55.932Z,13.00
2018-09-19T05:55:32.321Z,13.08
2018-09-19T05:57:10.237Z,13.03
2018-09-19T05:58:48.634Z,13.06
2018-09-19T06:00:24.538Z,13.04
2018-09-19T06:02:00.201Z,13.07
2018-09-19T06:03:37.403Z,13.22
2018-09-19T06:05:12.740Z,13.18
2018-09-19T06:06:47.740Z,13.26
2018-09-19T06:08:23.589Z,13.31
2018-09-19T06:09:59.521Z,13.42
2018-09-19T06:11:36.682Z,13.45
2018-09-19T06:13:12.392Z,13.50
2018-09-19T06:14:47.592Z,13.57
2018-09-19T06:16:23.415Z,13.67
2018-09-19T06:17:59.375Z,13.66
2018-09-19T06:19:37.976Z,13.66
2018-09-19T06:21:14.633Z,13.65
2018-09-19T06:22:49.614Z,13.68
2018-09-19T06:24:25.264Z,13.74
2018-09-19T06:26:01.793Z,13.80
2018-09-19T06:27:38.094Z,13.86
2018-09-19T06:29:13.851Z,13.93
2018-09-19T06:30:49.536Z,13.97
2018-09-19T06:32:26.699Z,14.07
2018-09-19T06:34:02.467Z,14.15
2018-09-19T06:35:40.230Z,14.29
2018-09-19T06:37:18.744Z,14.33
2018-09-19T06:38:54.381Z,14.39
2018-09-19T06:40:30.059Z,14.52
2018-09-19T06:42:07.428Z,14.59
2018-09-19T06:43:42.573Z,14.72
2018-09-19T06:45:20.840Z,14.82
2018-09-19T06:46:57.929Z,14.92
2018-09-19T06:48:32.915Z,15.03
2018-09-19T06:50:10.617Z,15.11
2018-09-19T06:51:47.518Z,15.23
2018-09-19T06:53:22.949Z,15.34
2018-09-19T06:55:00.711Z,15.51
2018-09-19T06:56:37.477Z,15.63
2018-09-19T06:58:12.872Z,15.78
2018-09-19T06:59:47.994Z,15.89
2018-09-19T07:01:23.283Z,15.97
2018-09-19T07:02:58.754Z,16.06
2018-09-19T07:04:35.361Z,16.13
2018-09-19T07:06:12.355Z,16.21
2018-09-19T07:07:48.787Z,16.31
2018-09-19T07:09:24.959Z,16.39
2018-09-19T07:10:59.889Z,16.52
2018-09-19T07:12:34.890Z,16.61
2018-09-19T07:14:09.889Z,16.67
2018-09-19T07:15:45.437Z,16.71
2018-09-19T07:17:22.784Z,16.84
2018-09-19T07:18:58.241Z,16.91
2018-09-19T07:20:33.813Z,17.08
2018-09-19T07:22:11.002Z,17.21
2018-09-19T07:23:51.102Z,17.41
2018-09-19T07:25:26.022Z,17.62
2018-09-19T07:27:04.797Z,17.86
2018-09-19T07:28:40.859Z,18.01
2018-09-19T07:30:21.785Z,18.21
2018-09-19T07:31:56.690Z,18.30
2018-09-19T07:33:31.881Z,18.42
2018-09-19T07:35:08.847Z,18.64
2018-09-19T07:36:47.372Z,18.67
2018-09-19T07:38:24.482Z,18.82
2018-09-19T07:40:01.053Z,18.86
2018-09-19T07:41:40.121Z,18.96
2018-09-19T07:43:15.410Z,19.14
2018-09-19T07:44:51.297Z,19.07
2018-09-19T07:46:35.496Z,19.08
2018-09-19T07:48:10.998Z,18.95
2018-09-19T07:49:48.677Z,18.89
2018-09-19T07:51:24.164Z,18.98
2018-09-19T07:53:03.675Z,19.03
2018-09-19T07:54:40.113Z,19.22
2018-09-19T07:56:15.083Z,19.30
2018-09-19T07:57:50.329Z,19.39
2018-09-19T07:59:26.603Z,19.49
2018-09-19T08:01:03.705Z,19.65
2018-09-19T08:02:39.111Z,19.69
2018-09-19T08:04:14.995Z,19.75
2018-09-19T08:05:49.994Z,19.91
2018-09-19T08:07:24.937Z,20.06
2018-09-19T08:09:01.991Z,20.15
2018-09-19T08:11:46.981Z,20.27
2018-09-19T08:13:23.574Z,20.36
2018-09-19T08:15:01.150Z,20.39
2018-09-19T08:16:40.346Z,20.60
2018-09-19T08:18:16.413Z,20.61
2018-09-19T08:19:51.479Z,20.67
2018-09-19T08:21:27.937Z,20.78
2018-09-19T08:23:06.042Z,21.08
2018-09-19T08:24:40.954Z,21.30
2018-09-19T08:26:16.045Z,21.06
2018-09-19T08:27:50.956Z,21.18
2018-09-19T08:29:27.398Z,21.31
2018-09-19T08:31:03.344Z,21.60
2018-09-19T08:32:38.609Z,21.82
2018-09-19T08:34:13.623Z,21.78
2018-09-19T08:35:51.155Z,21.90
2018-09-19T08:37:26.516Z,21.97
2018-09-19T08:39:02.626Z,22.06
2018-09-19T08:40:37.635Z,22.35
2018-09-19T08:42:13.121Z,22.42
2018-09-19T08:43:49.652Z,22.51
2018-09-19T08:45:27.001Z,22.54
2018-09-19T08:47:02.657Z,22.73
2018-09-19T08:48:38.156Z,22.73
2018-09-19T08:50:13.523Z,22.68
2018-09-19T08:51:49.247Z,22.86
2018-09-19T08:53:25.638Z,23.05
2018-09-19T08:55:03.074Z,23.17
2018-09-19T08:56:39.456Z,23.22
2018-09-19T08:58:15.768Z,23.25
2018-09-19T08:59:52.642Z,23.63
2018-09-19T09:01:30.834Z,23.52
2018-09-19T09:03:11.036Z,23.89
2018-09-19T09:04:48.889Z,23.88
2018-09-19T09:06:25.831Z,24.13
2018-09-19T09:08:03.429Z,24.21
2018-09-19T09:09:39.654Z,24.39
2018-09-19T09:11:18.492Z,24.48
2018-09-19T09:12:56.116Z,24.32
2018-09-19T09:14:32.707Z,24.43
2018-09-19T09:16:16.579Z,23.93
2018-09-19T09:17:56.650Z,23.95
2018-09-19T09:19:33.757Z,23.94
2018-09-19T09:21:13.931Z,24.41
2018-09-19T09:22:49.551Z,24.74
2018-09-19T09:24:24.671Z,24.55
2018-09-19T09:26:02.270Z,25.23
2018-09-19T09:27:39.330Z,25.49
2018-09-19T09:29:14.851Z,25.32
2018-09-19T09:30:54.283Z,25.74
2018-09-19T09:32:29.957Z,25.73
2018-09-19T09:34:07.975Z,25.65
2018-09-19T09:35:47.999Z,25.51
2018-09-19T09:37:25.526Z,25.65
2018-09-19T09:39:00.531Z,25.44
2018-09-19T09:40:36.114Z,25.43
2018-09-19T09:42:14.478Z,25.45
2018-09-19T09:43:52.636Z,25.08
2018-09-19T09:45:31.455Z,25.02
2018-09-19T09:47:08.747Z,24.89
2018-09-19T09:48:45.236Z,24.69
2018-09-19T09:50:28.979Z,24.98
2018-09-19T09:52:10.273Z,25.12
2018-09-19T09:53:47.003Z,25.28
2018-09-19T09:55:24.476Z,25.20
2018-09-19T09:56:59.447Z,25.19
2018-09-19T09:58:35.255Z,25.41
2018-09-19T10:01:54.938Z,25.52
2018-09-19T10:03:32.606Z,25.17
2018-09-19T10:05:12.511Z,25.74
2018-09-19T10:06:53.212Z,25.69
2018-09-19T10:08:29.977Z,25.54
2018-09-19T10:10:08.459Z,25.66
2018-09-19T10:11:46.629Z,25.87
2018-09-19T10:13:24.305Z,25.34
2018-09-19T10:15:00.615Z,25.46
2018-09-19T10:16:36.072Z,25.74
2018-09-19T10:18:12.075Z,26.00
2018-09-19T10:19:49.336Z,26.19
2018-09-19T10:21:24.274Z,25.87
2018-09-19T10:22:59.912Z,25.98
2018-09-19T10:24:37.892Z,26.03
2018-09-19T10:26:14.241Z,26.21
2018-09-19T10:27:54.524Z,26.54
2018-09-19T10:29:34.595Z,26.38
2018-09-19T10:31:10.254Z,26.58
2018-09-19T10:32:45.545Z,26.58
2018-09-19T10:34:22.071Z,26.39
2018-09-19T10:35:57.363Z,26.60
2018-09-19T10:38:49.808Z,26.59
2018-09-19T10:40:28.068Z,26.79
2018-09-19T10:42:03.489Z,26.47
2018-09-19T10:47:02.384Z,26.91
2018-09-19T10:48:41.055Z,27.31
2018-09-19T10:50:20.342Z,27.46
2018-09-19T10:52:02.667Z,27.70
2018-09-19T10:53:40.130Z,27.42
2018-09-19T10:55:15.858Z,27.45
2018-09-19T10:56:54.283Z,27.64
2018-09-19T10:58:35.168Z,27.48
2018-09-19T11:00:14.754Z,27.10
2018-09-19T11:03:35.203Z,27.55
2018-09-19T11:05:11.378Z,27.79
2018-09-19T11:06:47.541Z,27.23
2018-09-19T11:08:24.387Z,27.27
2018-09-19T11:09:59.498Z,27.59
2018-09-19T11:11:37.240Z,27.24
2018-09-19T11:13:16.664Z,27.07
2018-09-19T11:14:52.178Z,26.89
2018-09-19T11:16:28.677Z,26.70
2018-09-19T11:18:04.795Z,26.12
2018-09-19T11:19:41.751Z,25.93
2018-09-19T11:21:17.675Z,26.33
2018-09-19T11:22:56.838Z,26.02
2018-09-19T11:24:33.823Z,26.45
2018-09-19T11:26:10.205Z,26.48
2018-09-19T11:27:55.141Z,26.58
2018-09-19T11:29:31.267Z,27.21
2018-09-19T11:31:08.867Z,26.68
2018-09-19T11:32:48.073Z,27.12
2018-09-19T11:34:32.649Z,26.91
2018-09-19T11:36:09.802Z,26.91
2018-09-19T11:37:46.440Z,27.33
2018-09-19T11:39:24.369Z,27.20
2018-09-19T11:41:00.966Z,27.39
2018-09-19T11:42:40.401Z,26.87
2018-09-19T11:44:16.327Z,26.20
2018-09-19T11:45:55.758Z,26.28
2018-09-19T11:47:32.070Z,26.46
2018-09-19T11:49:08.979Z,26.79
2018-09-19T11:50:45.668Z,27.17
2018-09-19T11:52:21.069Z,27.57
2018-09-19T11:53:56.305Z,27.42
2018-09-19T11:55:31.338Z,27.60
2018-09-19T11:57:07.457Z,27.57
2018-09-19T11:58:47.073Z,27.71
2018-09-19T12:00:24.126Z,27.60
2018-09-19T12:01:59.963Z,27.52
2018-09-19T12:03:48.033Z,26.99
2018-09-19T12:05:28.044Z,26.66
2018-09-19T12:07:04.832Z,26.36
2018-09-19T12:08:40.754Z,26.26
2018-09-19T12:10:22.782Z,26.42
2018-09-19T12:11:57.742Z,26.62
2018-09-19T12:13:33.543Z,26.60
2018-09-19T12:15:09.095Z,26.51
2018-09-19T12:16:47.084Z,26.32
2018-09-19T12:18:25.369Z,26.23
2018-09-19T12:20:01.257Z,25.74
2018-09-19T12:21:36.510Z,25.47
2018-09-19T12:23:15.337Z,25.31
2018-09-19T12:24:52.488Z,25.13
2018-09-19T12:26:27.518Z,25.13
2018-09-19T12:28:03.039Z,25.20
2018-09-19T12:29:39.199Z,25.35
2018-09-19T12:31:16.477Z,25.60
2018-09-19T12:32:52.533Z,25.62
2018-09-19T12:34:32.029Z,25.53
2018-09-19T12:36:07.315Z,26.05
2018-09-19T12:37:42.352Z,26.26
2018-09-19T12:39:17.661Z,26.48
2018-09-19T12:40:54.436Z,26.87
2018-09-19T12:42:31.234Z,27.13
2018-09-19T12:44:08.785Z,27.39
2018-09-19T12:45:45.209Z,27.22
2018-09-19T12:47:20.973Z,27.36
2018-09-19T12:48:58.925Z,27.32
2018-09-19T12:50:38.217Z,27.59
2018-09-19T12:52:15.437Z,27.48
2018-09-19T12:53:51.307Z,27.67
2018-09-19T12:55:28.111Z,27.51
2018-09-19T12:57:04.620Z,27.41
2018-09-19T12:58:42.546Z,27.35
2018-09-19T13:00:18.160Z,27.05
2018-09-19T13:01:56.711Z,26.56
2018-09-19T13:03:38.331Z,26.65
2018-09-19T13:05:20.523Z,26.82
2018-09-19T13:07:03.309Z,27.03
2018-09-19T13:10:21.915Z,26.50
2018-09-19T13:11:58.586Z,26.38
2018-09-19T13:13:38.567Z,26.10
2018-09-19T13:15:21.003Z,26.26
2018-09-19T13:17:02.707Z,26.25
2018-09-19T13:18:42.839Z,25.96
2018-09-19T13:20:19.898Z,26.13
2018-09-19T13:22:00.353Z,26.08
2018-09-19T13:23:43.103Z,26.08
2018-09-19T13:25:22.881Z,25.82
2018-09-19T13:27:02.239Z,26.04
2018-09-19T13:30:30.328Z,26.00
2018-09-19T13:32:14.752Z,25.94
2018-09-19T13:33:53.169Z,25.64
2018-09-19T13:35:35.175Z,25.79
2018-09-19T13:37:15.447Z,25.95
2018-09-19T13:38:55.907Z,26.12
2018-09-19T13:40:34.672Z,26.27
2018-09-19T13:42:14.088Z,26.45
2018-09-19T13:43:51.089Z,26.31
2018-09-19T13:45:26.914Z,26.07
2018-09-19T13:47:04.502Z,25.85
2018-09-19T13:48:41.205Z,25.83
2018-09-19T13:52:42.007Z,25.63
2018-09-19T13:54:18.769Z,25.78
2018-09-19T13:55:56.508Z,25.86
2018-09-19T13:57:33.870Z,25.76
2018-09-19T13:59:13.074Z,25.75
2018-09-19T14:00:54.627Z,25.74
2018-09-19T14:02:30.982Z,25.90
2018-09-19T14:04:12.250Z,25.79
2018-09-19T14:05:51.240Z,25.96
2018-09-19T14:07:30.036Z,26.16
2018-09-19T14:09:11.487Z,26.32
2018-09-19T14:11:06.355Z,26.55
2018-09-19T14:12:45.648Z,26.63
2018-09-19T14:14:25.944Z,26.68
2018-09-19T14:16:04.675Z,26.67
2018-09-19T14:17:43.981Z,26.61
2018-09-19T14:19:21.792Z,26.53
2018-09-19T14:20:59.942Z,26.63
2018-09-19T14:22:36.917Z,26.69
2018-09-19T14:24:14.797Z,26.83
2018-09-19T14:25:50.716Z,26.95
2018-09-19T14:27:28.639Z,26.81
2018-09-19T14:29:04.708Z,26.92
2018-09-19T14:30:41.941Z,26.90
2018-09-19T14:34:08.624Z,26.87
2018-09-19T14:35:47.777Z,26.93
2018-09-19T14:37:27.577Z,26.83
2018-09-19T14:39:10.301Z,26.91
2018-09-19T14:40:47.676Z,26.97
2018-09-19T14:42:34.051Z,26.77
2018-09-19T14:44:13.482Z,26.94
2018-09-19T14:45:53.454Z,26.76
2018-09-19T14:47:32.203Z,26.89
2018-09-19T14:49:12.708Z,27.04
2018-09-19T14:50:57.291Z,27.06
2018-09-19T14:52:34.465Z,26.75
2018-09-19T14:54:12.640Z,26.72
2018-09-19T14:55:52.206Z,26.27
2018-09-19T14:57:30.855Z,26.31
2018-09-19T14:59:07.314Z,26.30
2018-09-19T15:00:46.940Z,26.19
2018-09-19T15:02:27.570Z,26.08
2018-09-19T15:04:05.522Z,25.87
2018-09-19T15:05:45.937Z,25.88
2018-09-19T15:07:24.616Z,25.77
2018-09-19T15:09:04.273Z,25.71
2018-09-19T15:10:44.695Z,25.67
2018-09-19T15:12:27.491Z,25.62
2018-09-19T15:14:04.625Z,25.77
2018-09-19T15:15:45.076Z,25.73
2018-09-19T15:17:23.521Z,25.72
2018-09-19T15:19:02.411Z,25.79
2018-09-19T15:20:50.033Z,25.78
2018-09-19T15:22:32.807Z,25.76
2018-09-19T15:24:22.667Z,25.74
2018-09-19T15:26:03.850Z,25.51
2018-09-19T15:27:47.420Z,25.39
2018-09-19T15:29:26.596Z,25.37
2018-09-19T15:31:27.848Z,25.26
2018-09-19T15:33:15.450Z,25.31
2018-09-19T15:35:09.423Z,25.49
2018-09-19T15:36:49.714Z,25.60
2018-09-19T15:38:28.574Z,25.54
2018-09-19T15:40:06.497Z,25.49
2018-09-19T15:41:46.633Z,25.52
2018-09-19T15:43:52.533Z,25.56
2018-09-19T15:45:29.166Z,25.50
2018-09-19T15:47:05.132Z,25.59
2018-09-19T15:48:42.004Z,25.58
2018-09-19T16:38:40.374Z,24.78
2018-09-19T16:40:17.774Z,24.60
2018-09-19T16:41:53.579Z,24.39
2018-09-19T16:43:31.065Z,24.35
2018-09-19T16:45:15.285Z,24.30
2018-09-19T16:46:54.422Z,24.20
2018-09-19T16:48:32.217Z,24.08
2018-09-19T16:50:12.888Z,24.06
2018-09-19T16:51:54.320Z,23.96
2018-09-19T16:53:35.539Z,23.87
2018-09-19T16:55:11.886Z,23.75
2018-09-19T16:56:50.153Z,23.67
2018-09-19T16:58:29.529Z,23.62
2018-09-19T17:00:09.706Z,23.62
2018-09-19T17:01:49.916Z,23.58
2018-09-19T17:03:29.915Z,23.57
2018-09-19T17:05:16.298Z,23.59
2018-09-19T17:08:47.117Z,23.61
2018-09-19T17:10:30.119Z,23.55
2018-09-19T17:12:07.492Z,23.47
2018-09-19T17:13:45.714Z,23.42
2018-09-19T17:15:23.586Z,23.36
2018-09-19T17:17:02.398Z,23.33
2018-09-19T17:18:39.779Z,23.33
2018-09-19T17:20:18.640Z,23.26
2018-09-19T17:21:56.307Z,23.16
2018-09-19T17:23:33.731Z,23.14
2018-09-19T17:25:13.421Z,23.08
2018-09-19T17:26:48.637Z,23.02
2018-09-19T17:28:26.386Z,22.96
2018-09-19T17:30:01.719Z,22.86
2018-09-19T17:31:41.038Z,22.85
2018-09-19T17:33:20.601Z,22.78
2018-09-19T17:34:59.505Z,22.70
2018-09-19T17:36:36.963Z,22.66
2018-09-19T17:38:14.844Z,22.61
2018-09-19T17:39:51.974Z,22.55
2018-09-19T17:41:30.321Z,22.46
2018-09-19T17:43:10.744Z,22.94
2018-09-19T17:44:51.732Z,22.78
2018-09-19T17:46:31.234Z,22.78
2018-09-19T17:48:09.104Z,22.59
2018-09-19T17:49:45.052Z,22.44
2018-09-19T17:51:22.172Z,22.36
2018-09-19T17:53:03.497Z,22.20
2018-09-19T17:54:44.145Z,22.13
2018-09-19T17:56:22.112Z,22.00
2018-09-19T17:57:58.350Z,21.89
2018-09-19T17:59:35.628Z,21.77
2018-09-19T18:01:16.096Z,21.71
2018-09-19T18:02:52.392Z,21.64
2018-09-19T18:04:29.398Z,21.60
2018-09-19T18:06:04.920Z,21.52
2018-09-19T18:07:54.909Z,21.45
2018-09-19T18:09:40.713Z,21.42
2018-09-19T18:11:31.614Z,21.48
2018-09-19T18:13:09.614Z,21.50
2018-09-19T18:14:46.178Z,21.51
2018-09-19T18:16:26.926Z,21.55
2018-09-19T18:18:05.796Z,21.50
2018-09-19T18:19:41.954Z,21.54
2018-09-19T18:21:17.836Z,21.40
2018-09-19T18:22:54.123Z,21.29
2018-09-19T18:24:30.415Z,21.29
2018-09-19T18:26:06.691Z,21.26
2018-09-19T18:27:44.643Z,21.24
2018-09-19T18:29:20.981Z,21.19
2018-09-19T18:30:56.654Z,21.14
2018-09-19T18:32:36.123Z,21.08
2018-09-19T18:34:16.288Z,21.15
2018-09-19T18:35:51.619Z,21.08
2018-09-19T18:37:38.935Z,20.99
2018-09-19T18:39:19.179Z,20.88
2018-09-19T18:41:03.021Z,20.81
2018-09-19T18:42:42.190Z,20.96
2018-09-19T18:44:17.902Z,20.99
2018-09-19T18:45:55.294Z,20.91
2018-09-19T18:47:31.567Z,20.83
2018-09-19T18:49:15.040Z,20.98
2018-09-19T18:50:52.173Z,21.03
2018-09-19T18:52:32.064Z,21.10
2018-09-19T18:54:12.459Z,21.07
2018-09-19T18:57:37.897Z,20.86
2018-09-19T18:59:17.787Z,20.82
2018-09-19T19:00:59.918Z,20.74
2018-09-19T19:02:38.750Z,20.69
2018-09-19T19:04:19.603Z,20.58
2018-09-19T19:06:02.176Z,20.44
2018-09-19T19:07:39.963Z,20.43
2018-09-19T19:09:20.480Z,20.36
2018-09-19T19:10:57.070Z,20.25
2018-09-19T19:14:40.467Z,20.06
2018-09-19T19:16:19.347Z,19.99
2018-09-19T19:18:01.105Z,19.93
2018-09-19T19:19:37.662Z,19.81
2018-09-19T19:21:16.778Z,19.70
2018-09-19T19:22:56.367Z,19.62
2018-09-19T19:24:32.756Z,19.57
2018-09-19T19:26:12.546Z,19.48
2018-09-19T19:27:49.935Z,19.38
2018-09-19T19:29:27.837Z,19.30
2018-09-19T19:31:09.902Z,19.33
2018-09-19T19:32:48.552Z,19.29
2018-09-19T19:34:27.084Z,19.28
2018-09-19T19:36:05.596Z,19.20
2018-09-19T19:37:41.933Z,19.17
2018-09-19T19:39:19.077Z,19.08
2018-09-19T19:40:55.961Z,19.01
2018-09-19T19:42:32.683Z,18.94
2018-09-19T19:44:10.677Z,18.99
2018-09-19T19:45:46.968Z,18.94
2018-09-19T19:47:22.713Z,19.01
2018-09-19T19:50:53.521Z,18.86
2018-09-19T19:52:29.899Z,18.78
2018-09-19T19:54:09.912Z,18.83
2018-09-19T19:55:50.484Z,18.72
2018-09-19T19:57:29.868Z,18.63
2018-09-19T19:59:07.509Z,18.58
2018-09-19T20:00:45.239Z,18.64
2018-09-19T20:02:23.008Z,18.58
2018-09-19T20:03:59.288Z,18.58
2018-09-19T20:05:38.541Z,18.50
2018-09-19T20:07:16.762Z,18.48
2018-09-19T20:08:54.092Z,18.42
2018-09-19T20:10:34.986Z,18.33
2018-09-19T20:12:10.902Z,18.24
2018-09-19T20:13:47.836Z,18.31
2018-09-19T20:15:25.051Z,18.25
2018-09-19T20:17:06.082Z,18.24
2018-09-19T20:18:43.851Z,18.20
2018-09-19T20:20:22.707Z,18.17
2018-09-19T20:22:03.163Z,18.09
2018-09-19T20:23:43.485Z,17.98
2018-09-19T20:25:20.751Z,17.89
2018-09-19T20:26:56.412Z,17.81
2018-09-19T20:28:33.483Z,17.72
2018-09-19T20:30:13.563Z,17.65
2018-09-19T20:31:50.542Z,17.54
2018-09-19T20:33:40.141Z,17.47
2018-09-19T20:35:17.975Z,17.40
2018-09-19T20:36:56.506Z,17.28
2018-09-19T20:38:41.832Z,17.21
2018-09-19T20:40:19.486Z,17.10
2018-09-19T20:43:37.077Z,16.95
2018-09-19T20:45:19.078Z,16.90
2018-09-19T20:48:48.096Z,16.80
2018-09-19T20:50:27.250Z,16.75
2018-09-19T20:52:06.617Z,16.69
2018-09-19T20:53:52.077Z,16.65
2018-09-19T20:55:32.432Z,16.56
2018-09-19T20:57:11.631Z,16.53
2018-09-19T20:58:55.176Z,16.44
2018-09-19T21:00:37.110Z,16.47
2018-09-19T21:02:16.397Z,16.47
2018-09-19T21:04:05.744Z,16.35
2018-09-19T21:05:48.493Z,16.34
2018-09-19T21:07:28.512Z,16.33
2018-09-19T21:09:07.753Z,16.25
2018-09-19T21:13:10.304Z,16.09
2018-09-19T21:14:51.511Z,16.03
2018-09-19T21:18:51.235Z,15.96
2018-09-19T21:22:29.651Z,15.75
2018-09-19T21:24:06.043Z,15.68
2018-09-19T21:25:43.622Z,15.61
2018-09-19T21:27:23.807Z,15.64
2018-09-19T21:29:02.833Z,15.50
2018-09-19T21:30:49.913Z,15.42
2018-09-19T21:32:30.466Z,15.30
2018-09-19T21:34:12.705Z,15.28
2018-09-19T21:35:51.351Z,15.35
2018-09-19T21:37:31.338Z,15.25
2018-09-19T21:39:19.915Z,15.26
2018-09-19T21:40:59.172Z,15.14
2018-09-19T21:42:48.827Z,15.10
2018-09-19T21:44:27.001Z,15.08
2018-09-19T21:46:10.179Z,14.97
2018-09-19T21:47:47.672Z,14.92
2018-09-19T21:49:23.766Z,14.86
2018-09-19T21:51:00.440Z,14.93
2018-09-19T21:52:35.988Z,14.83
2018-09-19T21:54:14.346Z,14.78
2018-09-19T21:55:51.139Z,14.76
2018-09-19T21:57:28.188Z,14.87
2018-09-19T21:59:04.816Z,14.77
2018-09-19T22:00:41.282Z,14.76
2018-09-19T22:02:23.243Z,14.74
2018-09-19T22:03:58.635Z,14.80
2018-09-19T22:05:37.524Z,14.88
2018-09-19T22:07:14.281Z,14.85
2018-09-19T22:08:50.853Z,14.92
2018-09-19T22:10:30.785Z,14.81
2018-09-19T22:12:10.761Z,14.87
2018-09-19T22:13:53.171Z,14.87
2018-09-19T22:17:45.236Z,15.14
2018-09-19T22:19:21.823Z,15.10
2018-09-19T22:20:59.327Z,15.12
2018-09-19T22:22:41.027Z,15.25
2018-09-19T22:24:19.246Z,15.27
2018-09-19T22:25:56.608Z,15.31
2018-09-19T22:27:33.580Z,15.28